createdAt,value
2024-01-09T00:01:09.609Z,58.19
2024-01-09T00:03:38.300Z,58.04
2024-01-09T00:06:06.864Z,58.17
2024-01-09T00:08:37.494Z,57.78
2024-01-09T00:11:09.474Z,58.20
2024-01-09T00:13:41.874Z,58.54
2024-01-09T00:16:10.709Z,59.40
2024-01-09T00:18:41.112Z,59.66
2024-01-09T00:21:09.023Z,59.46
2024-01-09T00:23:50.553Z,59.61
2024-01-09T00:26:25.687Z,59.07
2024-01-09T00:28:56.854Z,59.86
2024-01-09T00:31:25.040Z,60.19
2024-01-09T00:33:54.203Z,60.62
2024-01-09T00:36:25.988Z,60.36
2024-01-09T00:38:57.990Z,60.50
2024-01-09T00:41:29.749Z,60.46
2024-01-09T00:43:58.513Z,59.64
2024-01-09T00:46:36.449Z,59.84
2024-01-09T00:49:06.256Z,60.50
2024-01-09T00:51:40.340Z,60.80
2024-01-09T00:54:10.961Z,60.03
2024-01-09T00:56:44.959Z,60.15
2024-01-09T00:59:16.613Z,60.16
2024-01-09T01:01:45.039Z,60.40
2024-01-09T01:04:16.850Z,60.54
2024-01-09T01:06:47.107Z,60.48
2024-01-09T01:09:16.424Z,60.11
2024-01-09T01:12:01.025Z,61.16
2024-01-09T01:14:29.977Z,61.16
2024-01-09T01:17:08.069Z,60.99
2024-01-09T01:19:38.449Z,60.67
2024-01-09T01:22:09.960Z,61.14
2024-01-09T01:24:40.012Z,60.49
2024-01-09T01:27:29.239Z,61.19
2024-01-09T01:29:59.360Z,60.66
2024-01-09T01:32:28.267Z,61.47
2024-01-09T01:34:58.986Z,61.87
2024-01-09T01:37:29.174Z,61.38
2024-01-09T01:40:03.146Z,60.52
2024-01-09T01:42:36.312Z,60.90
2024-01-09T01:45:25.812Z,60.84
2024-01-09T01:47:56.372Z,60.81
2024-01-09T01:50:27.095Z,60.52
2024-01-09T01:52:56.765Z,60.46
2024-01-09T01:55:31.411Z,60.59
2024-01-09T01:58:01.689Z,60.57
2024-01-09T02:00:30.616Z,60.51
2024-01-09T02:03:00.494Z,60.29
2024-01-09T02:05:34.427Z,60.31
2024-01-09T02:08:08.447Z,60.34
2024-01-09T02:10:40.132Z,60.50
2024-01-09T02:13:10.904Z,60.53
2024-01-09T02:15:39.730Z,61.05
2024-01-09T02:18:11.267Z,61.11
2024-01-09T02:20:40.826Z,61.23
2024-01-09T02:23:11.785Z,60.97
2024-01-09T02:26:00.151Z,60.18
2024-01-09T02:28:46.943Z,60.87
2024-01-09T02:31:16.978Z,61.47
2024-01-09T02:33:48.210Z,61.48
2024-01-09T02:36:22.502Z,61.66
2024-01-09T02:38:56.493Z,61.86
2024-01-09T02:41:28.193Z,62.06
2024-01-09T02:44:01.432Z,60.84
2024-01-09T02:46:34.218Z,60.59
2024-01-09T02:49:03.427Z,60.72
2024-01-09T02:51:33.244Z,61.67
2024-01-09T02:54:06.278Z,60.91
2024-01-09T02:56:38.156Z,61.09
2024-01-09T02:59:13.541Z,61.59
2024-01-09T03:01:45.172Z,61.43
2024-01-09T03:04:18.088Z,60.82
2024-01-09T03:07:07.599Z,60.83
2024-01-09T03:09:40.251Z,61.15
2024-01-09T03:12:09.808Z,61.01
2024-01-09T03:14:43.987Z,60.90
2024-01-09T03:17:24.671Z,60.57
2024-01-09T03:19:53.148Z,60.83
2024-01-09T03:22:24.692Z,60.56
2024-01-09T03:24:55.386Z,60.91
2024-01-09T03:27:31.005Z,60.45
2024-01-09T03:29:58.814Z,60.22
2024-01-09T03:32:32.500Z,59.79
2024-01-09T03:35:09.187Z,60.27
2024-01-09T03:37:39.582Z,60.40
2024-01-09T03:40:12.147Z,59.87
2024-01-09T03:42:41.999Z,60.66
2024-01-09T03:45:11.054Z,60.10
2024-01-09T03:47:43.226Z,60.34
2024-01-09T03:50:15.920Z,60.39
2024-01-09T03:52:44.027Z,60.02
2024-01-09T03:55:15.574Z,59.85
2024-01-09T03:57:43.821Z,59.56
2024-01-09T04:00:15.150Z,60.48
2024-01-09T04:02:52.325Z,59.98
2024-01-09T04:05:20.853Z,60.42
2024-01-09T04:07:53.015Z,60.23
2024-01-09T04:10:23.991Z,59.77
2024-01-09T04:12:58.083Z,60.19
2024-01-09T04:15:28.646Z,60.07
2024-01-09T04:18:03.218Z,59.77
2024-01-09T04:20:32.913Z,59.67
2024-01-09T04:23:04.198Z,59.58
2024-01-09T04:25:33.690Z,60.28
2024-01-09T04:28:04.223Z,59.65
2024-01-09T04:30:33.699Z,60.22
2024-01-09T04:33:11.480Z,59.96
2024-01-09T04:35:45.689Z,59.88
2024-01-09T04:38:19.521Z,59.64
2024-01-09T04:40:52.419Z,59.38
2024-01-09T04:43:20.611Z,58.90
2024-01-09T04:45:50.432Z,59.88
2024-01-09T04:48:22.506Z,59.42
2024-01-09T04:50:51.859Z,59.08
2024-01-09T04:53:20.086Z,59.50
2024-01-09T04:55:51.600Z,59.68
2024-01-09T04:58:21.340Z,58.49
2024-01-09T05:00:52.483Z,58.36
2024-01-09T05:03:23.809Z,58.40
2024-01-09T05:05:52.533Z,59.40
2024-01-09T05:08:24.800Z,58.16
2024-01-09T05:10:55.574Z,58.87
2024-01-09T05:13:27.388Z,58.28
2024-01-09T05:16:03.435Z,58.39
2024-01-09T05:18:34.629Z,57.38
2024-01-09T05:21:06.312Z,57.94
2024-01-09T05:23:36.463Z,57.50
2024-01-09T05:26:09.469Z,57.17
2024-01-09T05:28:49.860Z,57.60
2024-01-09T05:31:22.638Z,57.09
2024-01-09T05:33:54.204Z,57.56
2024-01-09T05:36:25.950Z,56.63
2024-01-09T05:38:57.859Z,57.71
2024-01-09T05:41:46.746Z,57.00
2024-01-09T05:44:19.647Z,56.78
2024-01-09T05:46:52.662Z,57.29
2024-01-09T05:49:33.595Z,56.69
2024-01-09T05:52:04.521Z,57.16
2024-01-09T05:54:34.408Z,57.04
2024-01-09T05:57:10.662Z,57.96
2024-01-09T05:59:49.497Z,57.57
2024-01-09T06:02:25.094Z,57.86
2024-01-09T06:04:58.244Z,57.48
2024-01-09T06:07:27.611Z,57.46
2024-01-09T06:10:00.240Z,57.66
2024-01-09T06:12:30.853Z,57.23
2024-01-09T06:15:01.005Z,57.35
2024-01-09T06:17:30.220Z,58.10
2024-01-09T06:20:03.005Z,58.11
2024-01-09T06:22:31.164Z,57.50
2024-01-09T06:25:04.202Z,57.11
2024-01-09T06:27:35.050Z,57.33
2024-01-09T06:30:04.773Z,57.15
2024-01-09T06:32:32.808Z,56.64
2024-01-09T06:35:13.452Z,56.79
2024-01-09T06:37:56.149Z,57.36
2024-01-09T06:40:27.382Z,57.47
2024-01-09T06:42:55.667Z,57.25
2024-01-09T06:45:24.402Z,57.78
2024-01-09T06:47:53.168Z,56.69
2024-01-09T06:50:33.336Z,57.83
2024-01-09T06:53:08.146Z,57.37
2024-01-09T06:55:39.057Z,57.17
2024-01-09T06:58:07.321Z,57.63
2024-01-09T07:00:36.235Z,56.85
2024-01-09T07:03:05.229Z,57.62
2024-01-09T07:05:35.759Z,57.78
2024-01-09T07:08:04.230Z,57.84
2024-01-09T07:10:36.714Z,57.03
2024-01-09T07:13:08.050Z,57.78
2024-01-09T07:15:42.255Z,58.06
2024-01-09T07:18:12.171Z,57.07
2024-01-09T07:20:44.538Z,57.33
2024-01-09T07:23:19.832Z,57.49
2024-01-09T07:26:01.954Z,57.55
2024-01-09T07:28:36.011Z,56.28
2024-01-09T07:31:05.799Z,57.05
2024-01-09T07:33:41.280Z,56.56
2024-01-09T07:36:15.814Z,56.44
2024-01-09T07:38:47.594Z,56.56
2024-01-09T07:41:18.766Z,56.71
2024-01-09T07:43:48.709Z,56.58
2024-01-09T07:46:18.530Z,57.18
2024-01-09T07:48:50.028Z,57.36
2024-01-09T07:51:23.683Z,57.38
2024-01-09T07:53:57.758Z,57.61
2024-01-09T07:56:26.084Z,56.18
2024-01-09T07:59:06.379Z,56.72
2024-01-09T08:01:37.076Z,56.93
2024-01-09T08:04:08.588Z,56.89
2024-01-09T08:06:38.905Z,56.06
2024-01-09T08:09:07.385Z,55.92
2024-01-09T08:11:36.498Z,56.20
2024-01-09T08:14:13.075Z,56.37
2024-01-09T08:16:47.192Z,56.06
2024-01-09T08:19:17.614Z,56.10
2024-01-09T08:21:50.073Z,55.45
2024-01-09T08:24:20.825Z,55.01
2024-01-09T08:26:50.669Z,55.80
2024-01-09T08:29:21.709Z,55.35
2024-01-09T08:31:53.274Z,55.37
2024-01-09T08:34:25.279Z,54.75
2024-01-09T08:36:55.631Z,54.90
2024-01-09T08:39:23.743Z,54.38
2024-01-09T08:41:52.335Z,54.19
2024-01-09T08:44:35.806Z,53.52
2024-01-09T08:47:04.577Z,52.99
2024-01-09T08:49:43.393Z,53.46
2024-01-09T08:52:17.207Z,56.06
2024-01-09T08:54:47.007Z,52.71
2024-01-09T08:57:14.908Z,52.74
2024-01-09T08:59:45.237Z,53.09
2024-01-09T09:02:15.505Z,52.78
2024-01-09T09:04:43.402Z,51.90
2024-01-09T09:07:17.585Z,52.15
2024-01-09T09:09:45.911Z,52.41
2024-01-09T09:12:23.214Z,51.81
2024-01-09T09:14:53.493Z,51.88
2024-01-09T09:17:22.859Z,51.67
2024-01-09T09:19:53.112Z,51.66
2024-01-09T09:22:30.397Z,50.69
2024-01-09T09:25:00.988Z,50.77
2024-01-09T09:27:31.519Z,51.02
2024-01-09T09:30:15.360Z,50.94
2024-01-09T09:32:46.024Z,50.62
2024-01-09T09:35:14.849Z,51.38
2024-01-09T09:37:46.073Z,51.41
2024-01-09T09:40:20.658Z,50.63
2024-01-09T09:42:55.557Z,50.51
2024-01-09T09:45:26.672Z,50.44
2024-01-09T09:47:57.627Z,50.95
2024-01-09T09:50:30.891Z,50.27
2024-01-09T09:53:03.686Z,50.80
2024-01-09T09:55:31.936Z,50.57
2024-01-09T09:58:04.379Z,50.74
2024-01-09T10:00:35.295Z,49.82
2024-01-09T10:03:08.131Z,49.92
2024-01-09T10:05:53.143Z,49.72
2024-01-09T10:08:35.703Z,49.47
2024-01-09T10:11:06.197Z,49.17
2024-01-09T10:13:42.160Z,48.97
2024-01-09T10:16:15.483Z,47.62
2024-01-09T10:18:44.576Z,47.60
2024-01-09T10:21:13.692Z,46.96
2024-01-09T10:23:45.243Z,46.26
2024-01-09T10:26:14.670Z,46.16
2024-01-09T10:28:45.745Z,45.72
2024-01-09T10:31:17.249Z,46.11
2024-01-09T10:33:49.431Z,45.50
2024-01-09T10:36:17.454Z,46.07
2024-01-09T10:38:51.095Z,45.57
2024-01-09T10:41:23.731Z,45.58
2024-01-09T10:43:55.725Z,44.83
2024-01-09T10:46:35.234Z,44.68
2024-01-09T10:49:17.491Z,43.74
2024-01-09T10:51:50.644Z,44.19
2024-01-09T10:54:23.698Z,43.92
2024-01-09T10:56:55.085Z,43.43
2024-01-09T10:59:25.399Z,43.19
2024-01-09T11:01:57.055Z,44.24
2024-01-09T11:04:25.867Z,44.46
2024-01-09T11:07:04.229Z,43.73
2024-01-09T11:09:37.386Z,43.65
2024-01-09T11:12:08.679Z,43.10
2024-01-09T11:14:47.900Z,42.89
2024-01-09T11:17:21.416Z,43.51
2024-01-09T11:19:52.279Z,42.85
2024-01-09T11:22:24.457Z,42.83
2024-01-09T11:25:02.462Z,43.50
2024-01-09T11:27:44.410Z,43.22
2024-01-09T11:30:15.647Z,43.54
2024-01-09T11:32:51.956Z,43.07
2024-01-09T11:35:22.960Z,43.53
2024-01-09T11:37:58.591Z,42.25
2024-01-09T11:40:33.144Z,43.64
2024-01-09T11:43:03.798Z,41.54
2024-01-09T11:45:34.694Z,41.86
2024-01-09T11:48:05.210Z,42.04
2024-01-09T11:50:36.571Z,42.63
2024-01-09T11:53:10.784Z,41.78
2024-01-09T11:55:40.199Z,41.40
2024-01-09T11:58:11.114Z,42.40
2024-01-09T12:00:42.696Z,41.49
2024-01-09T12:03:20.339Z,41.26
2024-01-09T12:05:53.607Z,40.95
2024-01-09T12:08:28.301Z,41.33
2024-01-09T12:11:00.523Z,41.46
2024-01-09T12:13:41.400Z,41.10
2024-01-09T12:16:23.474Z,41.31
2024-01-09T12:18:56.454Z,40.28
2024-01-09T12:21:31.756Z,40.33
2024-01-09T12:24:19.983Z,40.21
2024-01-09T12:26:55.508Z,40.76
2024-01-09T12:29:26.407Z,39.80
2024-01-09T12:31:59.928Z,39.85
2024-01-09T12:34:29.064Z,39.43
2024-01-09T12:37:02.887Z,39.73
2024-01-09T12:39:36.850Z,40.06
2024-01-09T12:42:18.465Z,39.60
2024-01-09T12:44:46.549Z,40.48
2024-01-09T12:47:22.341Z,39.56
2024-01-09T12:50:02.685Z,40.19
2024-01-09T12:52:36.957Z,39.36
2024-01-09T12:55:08.307Z,40.00
2024-01-09T12:57:45.585Z,39.99
2024-01-09T13:00:17.467Z,39.32
2024-01-09T13:02:46.094Z,39.64
2024-01-09T13:05:21.367Z,39.58
2024-01-09T13:07:51.556Z,38.91
2024-01-09T13:10:23.876Z,38.98
2024-01-09T13:12:56.020Z,38.95
2024-01-09T13:15:26.277Z,38.95
2024-01-09T13:17:55.462Z,38.83
2024-01-09T13:20:30.347Z,39.75
2024-01-09T13:25:37.830Z,39.04
2024-01-09T13:28:11.234Z,38.74
2024-01-09T13:30:51.755Z,38.96
2024-01-09T13:33:22.794Z,38.68
2024-01-09T13:35:57.303Z,37.98
2024-01-09T13:38:27.146Z,38.29
2024-01-09T13:41:00.792Z,38.51
2024-01-09T13:43:35.163Z,38.55
2024-01-09T13:46:04.435Z,38.79
2024-01-09T13:48:35.273Z,39.01
2024-01-09T13:51:49.666Z,39.48
2024-01-09T13:54:01.258Z,38.80
2024-01-09T13:56:34.467Z,38.18
2024-01-09T13:59:11.623Z,38.46
2024-01-09T14:01:44.067Z,38.41
2024-01-09T14:04:18.794Z,39.17
2024-01-09T14:06:55.771Z,39.59
2024-01-09T14:09:26.517Z,38.96
2024-01-09T14:11:57.392Z,38.74
2024-01-09T14:14:27.704Z,38.57
2024-01-09T14:16:57.384Z,39.54
2024-01-09T14:19:26.915Z,38.46
2024-01-09T14:21:55.313Z,39.48
2024-01-09T14:24:26.154Z,39.03
2024-01-09T14:26:59.075Z,39.17
2024-01-09T14:29:37.517Z,38.95
2024-01-09T14:32:10.165Z,38.65
2024-01-09T14:34:40.119Z,38.47
2024-01-09T14:37:12.893Z,39.22
2024-01-09T14:39:45.349Z,38.97
2024-01-09T14:42:13.491Z,39.32
2024-01-09T14:44:43.284Z,39.17
2024-01-09T14:47:12.779Z,39.84
2024-01-09T14:49:43.342Z,38.73
2024-01-09T14:52:15.360Z,39.43
2024-01-09T14:54:44.856Z,39.05
2024-01-09T14:57:14.163Z,39.71
2024-01-09T14:59:46.377Z,39.45
2024-01-09T15:02:18.978Z,39.61
2024-01-09T15:04:52.122Z,39.05
2024-01-09T15:07:21.431Z,39.34
2024-01-09T15:09:51.944Z,40.63
2024-01-09T15:12:24.035Z,40.29
2024-01-09T15:14:53.898Z,39.69
2024-01-09T15:17:23.982Z,41.22
2024-01-09T15:19:58.729Z,40.70
2024-01-09T15:22:29.726Z,40.76
2024-01-09T15:25:01.640Z,41.26
2024-01-09T15:27:30.302Z,40.97
2024-01-09T15:30:01.036Z,40.73
2024-01-09T15:32:31.998Z,41.51
2024-01-09T15:35:05.448Z,40.60
2024-01-09T15:37:38.958Z,41.73
2024-01-09T15:40:18.294Z,41.72
2024-01-09T15:42:47.271Z,40.76
2024-01-09T15:45:19.903Z,41.48
2024-01-09T15:48:00.380Z,41.03
2024-01-09T15:50:30.611Z,41.59
2024-01-09T15:53:04.026Z,41.86
2024-01-09T15:55:34.479Z,42.28
2024-01-09T15:58:07.869Z,41.63
2024-01-09T16:00:42.292Z,41.58
2024-01-09T16:03:15.572Z,40.73
2024-01-09T16:05:47.982Z,41.22
2024-01-09T16:08:21.448Z,41.10
2024-01-09T16:10:52.689Z,41.92
2024-01-09T16:13:27.723Z,41.34
2024-01-09T16:16:07.716Z,40.66
2024-01-09T16:18:46.836Z,41.43
2024-01-09T16:21:17.530Z,41.77
2024-01-09T16:23:47.700Z,41.30
2024-01-09T16:26:16.592Z,41.87
2024-01-09T16:28:52.834Z,42.07
2024-01-09T16:31:23.420Z,41.74
2024-01-09T16:33:51.858Z,41.36
2024-01-09T16:36:28.221Z,41.86
2024-01-09T16:38:59.197Z,41.05
2024-01-09T16:41:36.096Z,41.15
2024-01-09T16:44:09.635Z,41.01
2024-01-09T16:46:45.067Z,41.05
2024-01-09T16:49:16.801Z,41.70
2024-01-09T16:51:52.070Z,41.51
2024-01-09T16:54:23.613Z,42.05
2024-01-09T16:56:53.103Z,41.35
2024-01-09T16:59:22.177Z,41.50
2024-01-09T17:01:58.266Z,41.67
2024-01-09T17:04:29.500Z,41.95
2024-01-09T17:07:01.232Z,41.13
2024-01-09T17:09:34.136Z,41.58
2024-01-09T17:12:02.714Z,41.48
2024-01-09T17:14:47.102Z,41.22
2024-01-09T17:17:17.532Z,41.57
2024-01-09T17:19:47.166Z,41.23
2024-01-09T17:22:15.368Z,42.03
2024-01-09T17:24:48.508Z,41.88
2024-01-09T17:27:17.894Z,41.40
2024-01-09T17:29:50.268Z,41.81
2024-01-09T17:32:23.923Z,41.45
2024-01-09T17:34:53.193Z,41.00
2024-01-09T17:37:21.925Z,41.92
2024-01-09T17:39:50.545Z,41.91
2024-01-09T17:42:24.532Z,42.04
2024-01-09T17:45:01.258Z,41.94
2024-01-09T17:47:38.658Z,42.02
2024-01-09T17:50:11.984Z,41.63
2024-01-09T17:52:40.880Z,42.09
2024-01-09T17:55:10.802Z,41.49
2024-01-09T17:57:43.917Z,42.06
2024-01-09T18:00:16.586Z,42.03
2024-01-09T18:02:48.317Z,42.11
2024-01-09T18:05:18.488Z,41.86
2024-01-09T18:07:47.691Z,42.32
2024-01-09T18:10:18.713Z,42.33
2024-01-09T18:12:46.738Z,42.72
2024-01-09T18:15:17.102Z,42.87
2024-01-09T18:17:55.044Z,42.83
2024-01-09T18:20:28.178Z,43.04
2024-01-09T18:22:56.880Z,43.09
2024-01-09T18:25:26.615Z,43.61
2024-01-09T18:27:55.217Z,43.36
2024-01-09T18:30:26.140Z,43.99
2024-01-09T18:32:59.416Z,43.58
2024-01-09T18:35:29.116Z,43.77
2024-01-09T18:38:02.373Z,43.96
2024-01-09T18:40:37.806Z,44.32
2024-01-09T18:43:07.396Z,44.40
2024-01-09T18:45:39.957Z,44.48
2024-01-09T18:48:15.615Z,44.10
2024-01-09T18:50:47.317Z,44.57
2024-01-09T18:53:18.502Z,45.29
2024-01-09T18:55:48.847Z,45.09
2024-01-09T18:58:17.502Z,45.17
2024-01-09T19:00:47.877Z,45.08
2024-01-09T19:03:18.356Z,45.25
2024-01-09T19:05:48.207Z,45.17
2024-01-09T19:08:17.805Z,45.96
2024-01-09T19:10:49.837Z,45.74
2024-01-09T19:13:20.041Z,45.50
2024-01-09T19:15:53.404Z,45.90
2024-01-09T19:18:26.593Z,46.05
2024-01-09T19:20:58.548Z,45.96
2024-01-09T19:23:30.155Z,46.27
2024-01-09T19:26:01.577Z,46.02
2024-01-09T19:28:31.484Z,46.34
2024-01-09T19:31:03.693Z,46.31
2024-01-09T19:33:34.851Z,46.26
2024-01-09T19:36:05.511Z,46.55
2024-01-09T19:38:37.627Z,46.36
2024-01-09T19:41:10.530Z,46.91
2024-01-09T19:43:41.024Z,46.32
2024-01-09T19:46:11.772Z,46.90
2024-01-09T19:48:43.914Z,47.25
2024-01-09T19:51:25.026Z,47.20
2024-01-09T19:53:54.990Z,47.10
2024-01-09T19:56:29.526Z,47.93
2024-01-09T19:59:05.173Z,47.71
2024-01-09T20:01:39.961Z,47.83
2024-01-09T20:04:14.222Z,48.86
2024-01-09T20:06:46.386Z,48.23
2024-01-09T20:09:18.190Z,48.40
2024-01-09T20:11:46.684Z,48.50
2024-01-09T20:14:16.249Z,48.38
2024-01-09T20:16:48.379Z,48.94
2024-01-09T20:19:21.696Z,48.84
2024-01-09T20:21:53.369Z,48.38
2024-01-09T20:24:24.464Z,48.31
2024-01-09T20:26:53.495Z,48.52
2024-01-09T20:29:22.237Z,48.54
2024-01-09T20:31:51.995Z,48.73
2024-01-09T20:34:26.190Z,48.53
2024-01-09T20:36:56.087Z,49.08
2024-01-09T20:39:30.921Z,48.91
2024-01-09T20:41:58.781Z,48.75
2024-01-09T20:44:28.209Z,49.09
2024-01-09T20:46:58.912Z,49.69
2024-01-09T20:49:28.618Z,49.74
2024-01-09T20:51:57.013Z,50.03
2024-01-09T20:54:25.512Z,49.98
2024-01-09T20:56:59.578Z,49.99
2024-01-09T20:59:29.051Z,50.97
2024-01-09T21:02:00.599Z,50.67
2024-01-09T21:04:33.538Z,50.79
2024-01-09T21:07:01.574Z,50.59
2024-01-09T21:09:29.814Z,50.48
2024-01-09T21:12:03.845Z,50.78
2024-01-09T21:14:31.676Z,50.52
2024-01-09T21:17:01.733Z,50.75
2024-01-09T21:19:39.363Z,50.87
2024-01-09T21:22:10.601Z,50.70
2024-01-09T21:24:39.212Z,51.55
2024-01-09T21:27:08.642Z,51.70
2024-01-09T21:29:43.147Z,51.44
2024-01-09T21:32:15.323Z,51.39
2024-01-09T21:34:49.136Z,51.59
2024-01-09T21:37:16.999Z,52.16
2024-01-09T21:39:47.610Z,52.07
2024-01-09T21:42:15.507Z,52.20
2024-01-09T21:44:46.736Z,52.24
2024-01-09T21:47:15.854Z,52.25
2024-01-09T21:49:46.121Z,51.61
2024-01-09T21:52:17.372Z,52.06
2024-01-09T21:54:50.537Z,52.29
2024-01-09T21:57:19.339Z,52.80
2024-01-09T21:59:53.373Z,52.98
2024-01-09T22:02:23.219Z,52.54
2024-01-09T22:05:07.827Z,52.72
2024-01-09T22:07:43.031Z,53.13
2024-01-09T22:10:13.050Z,53.04
2024-01-09T22:12:42.868Z,53.69
2024-01-09T22:15:12.593Z,53.34
2024-01-09T22:17:44.099Z,53.25
2024-01-09T22:20:17.367Z,53.11
2024-01-09T22:22:45.608Z,54.47
2024-01-09T22:25:15.899Z,53.68
2024-01-09T22:27:47.889Z,53.20
2024-01-09T22:30:18.213Z,53.35
2024-01-09T22:32:48.041Z,53.30
2024-01-09T22:35:18.144Z,53.85
2024-01-09T22:37:47.076Z,53.38
2024-01-09T22:40:23.271Z,54.78
2024-01-09T22:42:53.666Z,54.91
2024-01-09T22:45:23.780Z,54.90
2024-01-09T22:47:52.686Z,54.80
2024-01-09T22:50:27.277Z,55.08
2024-01-09T22:52:56.522Z,54.71
2024-01-09T22:55:25.141Z,54.96
2024-01-09T22:57:57.131Z,54.74
2024-01-09T23:00:27.856Z,54.27
2024-01-09T23:02:57.781Z,54.55
2024-01-09T23:05:39.754Z,54.70
2024-01-09T23:08:14.738Z,54.36
2024-01-09T23:10:51.208Z,55.43
2024-01-09T23:13:24.187Z,55.09
2024-01-09T23:15:55.668Z,54.75
2024-01-09T23:18:26.472Z,55.28
2024-01-09T23:20:55.899Z,54.71
2024-01-09T23:23:26.776Z,55.57
2024-01-09T23:25:55.548Z,54.37
2024-01-09T23:28:24.432Z,55.30
2024-01-09T23:30:53.324Z,54.63
2024-01-09T23:33:21.619Z,55.30
2024-01-09T23:35:51.202Z,55.48
2024-01-09T23:38:28.073Z,55.64
2024-01-09T23:40:58.195Z,55.77
2024-01-09T23:43:29.556Z,55.36
2024-01-09T23:46:00.365Z,55.83
2024-01-09T23:48:32.442Z,55.08
2024-01-09T23:51:01.987Z,55.41
2024-01-09T23:53:33.032Z,55.77
2024-01-09T23:56:03.363Z,55.82
2024-01-09T23:58:37.096Z,55.31
